| Data: 03/05/2026, Hora: 19:45 | |||||
| Act. | Màx. | Hora màxima | Mín. | Hora mínima | |
| Temperatura | 14,4 °C | 18,9 °C | 15:57 | 13,3 °C | 07:42 |
| Humitat | 79 % | 99 % | 05:58 | 61 % | 15:57 |
| Pressió | 1.015,3 hPa | 1.050,2 hPa | 05:00 | 1.015,3 hPa | 19:42 |
| Vent | 2 km/h | 21 km/h | 16:12 | ![]() |
|
| Direcció | NNE | ||||
| Precipitació | 0,0 mm | ||||
| Horari | Temperatura | Humitat | Pressió | Vent | Pluja | ||||||||
| Act. | Màx. | Mín. | Act. | Màx. | Mín. | Act. | Màx. | Mín. | Act. | Dir. | Màx. | ||
| 00:01 - 01:00 | 14,1 | 14,4 | 13,9 | 92 | 96 | 91 | 1020,4 | 1052,3 | 1020,0 | 0 | NNE | 8 | |
| 01:01 - 02:00 | 14,0 | 14,4 | 13,9 | 94 | 94 | 93 | 1020,2 | 1020,4 | 1020,0 | 1 | ENE | 10 | |
| 02:01 - 03:00 | 13,9 | 13,9 | 13,9 | 95 | 96 | 94 | 1019,6 | 1020,0 | 1019,3 | 0 | N | 8 | |
| 03:01 - 04:00 | 13,9 | 13,9 | 13,9 | 96 | 96 | 95 | 1018,8 | 1019,3 | 1018,7 | 0 | N | 5 | |
| 04:01 - 05:00 | 13,9 | 14,4 | 13,9 | 95 | 99 | 94 | 1018,6 | 1050,2 | 1018,3 | 0 | NNE | 5 | |
| 05:01 - 06:00 | 13,6 | 13,9 | 13,3 | 98 | 99 | 96 | 1018,2 | 1018,3 | 1018,0 | 0 | N | 5 | |
| 06:01 - 07:00 | 13,5 | 13,9 | 13,3 | 95 | 98 | 91 | 1017,8 | 1018,0 | 1017,7 | 0 | N | 1 | |
| 07:01 - 08:00 | 13,6 | 13,9 | 13,3 | 91 | 92 | 91 | 1017,8 | 1018,0 | 1017,7 | 0 | NE | 10 | |
| 08:01 - 09:00 | 13,9 | 14,4 | 13,9 | 96 | 98 | 93 | 1018,0 | 1018,0 | 1018,0 | 1 | E | 10 | |
| 09:01 - 10:00 | 14,8 | 15,6 | 13,9 | 89 | 96 | 80 | 1017,9 | 1018,0 | 1017,7 | 4 | ENE | 16 | |
| 10:01 - 11:00 | 16,1 | 16,7 | 15,6 | 76 | 83 | 73 | 1018,2 | 1018,7 | 1018,0 | 3 | SSW | 16 | |
| 11:01 - 12:00 | 16,7 | 16,7 | 16,1 | 72 | 74 | 69 | 1018,4 | 1018,7 | 1018,3 | 3 | SW | 13 | |
| 12:01 - 13:00 | 16,5 | 16,7 | 16,1 | 74 | 83 | 70 | 1018,5 | 1018,7 | 1017,7 | 3 | SE | 13 | |
| 13:01 - 14:00 | 16,8 | 17,2 | 15,6 | 74 | 84 | 70 | 1017,9 | 1018,0 | 1017,7 | 6 | SW | 19 | |
| 14:01 - 15:00 | 16,9 | 17,2 | 16,7 | 70 | 76 | 67 | 1017,6 | 1017,7 | 1017,3 | 5 | W | 21 | |
| 15:01 - 16:00 | 17,6 | 18,9 | 17,2 | 70 | 74 | 61 | 1017,3 | 1017,7 | 1017,0 | 5 | SW | 18 | |
| 16:01 - 17:00 | 17,7 | 18,6 | 16,7 | 65 | 70 | 63 | 1016,3 | 1017,0 | 1015,6 | 4 | SSE | 21 | |
| 17:01 - 18:00 | 15,9 | 16,7 | 15,0 | 78 | 87 | 71 | 1015,6 | 1015,6 | 1015,6 | 4 | SE | 18 | |
| 18:01 - 19:00 | 14,3 | 15,0 | 13,9 | 88 | 91 | 86 | 1015,5 | 1015,6 | 1015,3 | 4 | W | 18 | |
| 19:01 - 19:45 | 14,3 | 14,4 | 13,9 | 80 | 87 | 78 | 1015,4 | 1015,6 | 1015,3 | 4 | SE | 19 | |
| 15,1 | 18,9 | 13,3 | 84 | 99 | 61 | 1017,9 | 1052,3 | 1015,3 | 2 | ESE | 21 | 0,0 | |